sensor_id;sensor_type;location;lat;lon;timestamp;pressure;altitude;pressure_sealevel;temperature;humidity
28626;BME280;18905;42.668;23.364;2022-10-17T00:00:32;96382.31;;;9.19;100.00
28626;BME280;18905;42.668;23.364;2022-10-17T00:02:57;96383.66;;;9.22;100.00
28626;BME280;18905;42.668;23.364;2022-10-17T00:05:23;96389.06;;;9.22;100.00
28626;BME280;18905;42.668;23.364;2022-10-17T00:07:49;96378.00;;;9.18;100.00
28626;BME280;18905;42.668;23.364;2022-10-17T00:10:15;96388.25;;;9.16;100.00
28626;BME280;18905;42.668;23.364;2022-10-17T00:12:41;96384.22;;;9.14;100.00
28626;BME280;18905;42.668;23.364;2022-10-17T00:15:07;96384.50;;;9.12;100.00
28626;BME280;18905;42.668;23.364;2022-10-17T00:17:33;96385.03;;;9.09;100.00
28626;BME280;18905;42.668;23.364;2022-10-17T00:19:59;96391.28;;;9.05;100.00
28626;BME280;18905;42.668;23.364;2022-10-17T00:22:26;96389.38;;;9.05;100.00
28626;BME280;18905;42.668;23.364;2022-10-17T00:24:51;96387.75;;;9.04;100.00
28626;BME280;18905;42.668;23.364;2022-10-17T00:27:17;96360.38;;;8.82;100.00
28626;BME280;18905;42.668;23.364;2022-10-17T00:29:42;96383.50;;;8.93;100.00
28626;BME280;18905;42.668;23.364;2022-10-17T00:32:11;96384.84;;;8.96;100.00
28626;BME280;18905;42.668;23.364;2022-10-17T00:34:37;96394.31;;;8.88;100.00
28626;BME280;18905;42.668;23.364;2022-10-17T00:37:02;96397.31;;;8.77;100.00
28626;BME280;18905;42.668;23.364;2022-10-17T00:39:27;96403.00;;;8.65;100.00
28626;BME280;18905;42.668;23.364;2022-10-17T00:41:53;96391.69;;;8.63;100.00
28626;BME280;18905;42.668;23.364;2022-10-17T00:47:05;96381.78;;;8.49;100.00
28626;BME280;18905;42.668;23.364;2022-10-17T00:49:34;96395.75;;;8.61;100.00
28626;BME280;18905;42.668;23.364;2022-10-17T00:52:03;96394.66;;;8.72;100.00
28626;BME280;18905;42.668;23.364;2022-10-17T00:54:33;96377.44;;;8.63;100.00
28626;BME280;18905;42.668;23.364;2022-10-17T00:56:59;96397.88;;;8.69;100.00
28626;BME280;18905;42.668;23.364;2022-10-17T00:59:25;96376.13;;;8.55;100.00
28626;BME280;18905;42.668;23.364;2022-10-17T01:01:57;96397.34;;;8.62;100.00
28626;BME280;18905;42.668;23.364;2022-10-17T01:04:23;96394.66;;;8.67;100.00
28626;BME280;18905;42.668;23.364;2022-10-17T01:06:49;96388.22;;;8.63;100.00
28626;BME280;18905;42.668;23.364;2022-10-17T01:09:14;96393.84;;;8.66;100.00
28626;BME280;18905;42.668;23.364;2022-10-17T01:17:10;96395.19;;;8.69;100.00
28626;BME280;18905;42.668;23.364;2022-10-17T01:22:46;96362.16;;;8.43;100.00
28626;BME280;18905;42.668;23.364;2022-10-17T01:25:36;96384.97;;;8.61;100.00
28626;BME280;18905;42.668;23.364;2022-10-17T01:33:16;96386.09;;;8.50;100.00
28626;BME280;18905;42.668;23.364;2022-10-17T01:35:58;96389.31;;;8.47;100.00
28626;BME280;18905;42.668;23.364;2022-10-17T01:38:40;96386.91;;;8.40;100.00
28626;BME280;18905;42.668;23.364;2022-10-17T01:43:58;96402.53;;;8.43;100.00
28626;BME280;18905;42.668;23.364;2022-10-17T01:46:38;96401.47;;;8.34;100.00
28626;BME280;18905;42.668;23.364;2022-10-17T01:49:06;96397.94;;;8.39;100.00
28626;BME280;18905;42.668;23.364;2022-10-17T01:51:37;96402.53;;;8.38;100.00
28626;BME280;18905;42.668;23.364;2022-10-17T01:54:17;96407.66;;;8.35;100.00
28626;BME280;18905;42.668;23.364;2022-10-17T01:56:45;96381.28;;;8.17;100.00
28626;BME280;18905;42.668;23.364;2022-10-17T01:59:26;96405.50;;;8.32;100.00
28626;BME280;18905;42.668;23.364;2022-10-17T02:01:55;96407.13;;;8.28;100.00
28626;BME280;18905;42.668;23.364;2022-10-17T02:04:22;96419.50;;;8.29;100.00
28626;BME280;18905;42.668;23.364;2022-10-17T02:06:48;96411.41;;;8.24;100.00
28626;BME280;18905;42.668;23.364;2022-10-17T02:09:24;96400.13;;;8.17;100.00
28626;BME280;18905;42.668;23.364;2022-10-17T02:12:18;96412.47;;;8.18;100.00
28626;BME280;18905;42.668;23.364;2022-10-17T02:20:42;96397.97;;;8.04;100.00
28626;BME280;18905;42.668;23.364;2022-10-17T02:23:23;96403.63;;;8.02;100.00
28626;BME280;18905;42.668;23.364;2022-10-17T02:26:11;96417.88;;;8.13;100.00
28626;BME280;18905;42.668;23.364;2022-10-17T02:29:11;96421.06;;;8.20;100.00
28626;BME280;18905;42.668;23.364;2022-10-17T02:31:44;96420.56;;;8.18;100.00
28626;BME280;18905;42.668;23.364;2022-10-17T02:34:16;96423.50;;;8.11;100.00
28626;BME280;18905;42.668;23.364;2022-10-17T02:36:50;96416.78;;;8.04;100.00
28626;BME280;18905;42.668;23.364;2022-10-17T02:39:19;96417.31;;;8.01;100.00
28626;BME280;18905;42.668;23.364;2022-10-17T02:41:47;96404.41;;;7.83;100.00
28626;BME280;18905;42.668;23.364;2022-10-17T02:44:13;96414.34;;;7.72;100.00
28626;BME280;18905;42.668;23.364;2022-10-17T02:46:40;96439.88;;;7.75;100.00
28626;BME280;18905;42.668;23.364;2022-10-17T02:49:27;96438.28;;;7.69;100.00
28626;BME280;18905;42.668;23.364;2022-10-17T02:54:32;96444.47;;;7.64;100.00
28626;BME280;18905;42.668;23.364;2022-10-17T02:57:08;96448.50;;;7.67;100.00
28626;BME280;18905;42.668;23.364;2022-10-17T02:59:35;96454.13;;;7.65;100.00
28626;BME280;18905;42.668;23.364;2022-10-17T03:02:06;96460.59;;;7.64;100.00
28626;BME280;18905;42.668;23.364;2022-10-17T03:04:32;96453.03;;;7.41;100.00
28626;BME280;18905;42.668;23.364;2022-10-17T03:06:57;96460.53;;;7.39;100.00
28626;BME280;18905;42.668;23.364;2022-10-17T03:09:23;96452.69;;;7.28;100.00
28626;BME280;18905;42.668;23.364;2022-10-17T03:11:48;96434.91;;;7.12;100.00
28626;BME280;18905;42.668;23.364;2022-10-17T03:14:14;96471.47;;;7.23;100.00
28626;BME280;18905;42.668;23.364;2022-10-17T03:16:39;96452.06;;;7.06;100.00
28626;BME280;18905;42.668;23.364;2022-10-17T03:19:04;96467.88;;;6.97;100.00
28626;BME280;18905;42.668;23.364;2022-10-17T03:21:30;96456.53;;;6.85;100.00
28626;BME280;18905;42.668;23.364;2022-10-17T03:23:55;96454.94;;;6.84;100.00
28626;BME280;18905;42.668;23.364;2022-10-17T03:26:21;96452.59;;;6.98;100.00
28626;BME280;18905;42.668;23.364;2022-10-17T03:28:46;96460.66;;;6.98;100.00
28626;BME280;18905;42.668;23.364;2022-10-17T03:31:15;96447.94;;;6.83;100.00
28626;BME280;18905;42.668;23.364;2022-10-17T03:33:41;96465.16;;;6.87;100.00
28626;BME280;18905;42.668;23.364;2022-10-17T03:36:09;96437.91;;;6.64;100.00
28626;BME280;18905;42.668;23.364;2022-10-17T03:38:35;96471.53;;;6.81;100.00
28626;BME280;18905;42.668;23.364;2022-10-17T03:41:01;96464.03;;;6.78;100.00
28626;BME280;18905;42.668;23.364;2022-10-17T03:43:27;96463.59;;;6.96;100.00
28626;BME280;18905;42.668;23.364;2022-10-17T03:45:52;96475.13;;;7.02;100.00
28626;BME280;18905;42.668;23.364;2022-10-17T03:48:17;96475.19;;;7.07;100.00
28626;BME280;18905;42.668;23.364;2022-10-17T03:50:43;96470.09;;;7.10;100.00
28626;BME280;18905;42.668;23.364;2022-10-17T03:53:08;96481.94;;;7.14;100.00
28626;BME280;18905;42.668;23.364;2022-10-17T03:55:34;96475.88;;;7.44;100.00
28626;BME280;18905;42.668;23.364;2022-10-17T03:57:59;96483.13;;;7.48;100.00
28626;BME280;18905;42.668;23.364;2022-10-17T04:00:25;96479.19;;;7.86;100.00
28626;BME280;18905;42.668;23.364;2022-10-17T04:02:50;96479.22;;;8.21;100.00
28626;BME280;18905;42.668;23.364;2022-10-17T04:05:15;96473.28;;;8.39;100.00
28626;BME280;18905;42.668;23.364;2022-10-17T04:07:41;96484.50;;;9.01;100.00
28626;BME280;18905;42.668;23.364;2022-10-17T04:10:06;96477.91;;;9.37;100.00
28626;BME280;18905;42.668;23.364;2022-10-17T04:12:32;96481.78;;;9.74;100.00
28626;BME280;18905;42.668;23.364;2022-10-17T04:14:57;96491.25;;;10.15;100.00
28626;BME280;18905;42.668;23.364;2022-10-17T04:17:23;96490.91;;;10.22;100.00
28626;BME280;18905;42.668;23.364;2022-10-17T04:19:48;96487.94;;;10.23;100.00
28626;BME280;18905;42.668;23.364;2022-10-17T04:22:14;96476.41;;;10.18;100.00
28626;BME280;18905;42.668;23.364;2022-10-17T04:24:39;96491.41;;;10.29;100.00
28626;BME280;18905;42.668;23.364;2022-10-17T04:27:05;96495.72;;;9.86;100.00
28626;BME280;18905;42.668;23.364;2022-10-17T04:29:31;96490.22;;;9.63;100.00
28626;BME280;18905;42.668;23.364;2022-10-17T04:31:56;96502.19;;;9.37;100.00
28626;BME280;18905;42.668;23.364;2022-10-17T04:34:22;96477.84;;;8.83;100.00
28626;BME280;18905;42.668;23.364;2022-10-17T04:36:47;96479.75;;;8.43;100.00
28626;BME280;18905;42.668;23.364;2022-10-17T04:39:13;96499.69;;;8.27;100.00
28626;BME280;18905;42.668;23.364;2022-10-17T04:41:38;96500.19;;;8.19;100.00
28626;BME280;18905;42.668;23.364;2022-10-17T04:44:04;96507.69;;;8.02;100.00
28626;BME280;18905;42.668;23.364;2022-10-17T04:46:29;96505.53;;;7.89;100.00
28626;BME280;18905;42.668;23.364;2022-10-17T04:48:54;96493.63;;;7.55;100.00
28626;BME280;18905;42.668;23.364;2022-10-17T04:51:20;96504.88;;;7.42;100.00
28626;BME280;18905;42.668;23.364;2022-10-17T04:53:45;96505.31;;;7.19;100.00
28626;BME280;18905;42.668;23.364;2022-10-17T04:56:13;96510.19;;;7.27;100.00
28626;BME280;18905;42.668;23.364;2022-10-17T04:58:39;96508.22;;;7.07;100.00
28626;BME280;18905;42.668;23.364;2022-10-17T05:01:07;96505.59;;;6.71;100.00
28626;BME280;18905;42.668;23.364;2022-10-17T05:03:33;96513.00;;;6.54;100.00
28626;BME280;18905;42.668;23.364;2022-10-17T05:06:05;96518.75;;;6.36;100.00
28626;BME280;18905;42.668;23.364;2022-10-17T05:08:31;96505.28;;;6.26;100.00
28626;BME280;18905;42.668;23.364;2022-10-17T05:10:57;96508.41;;;6.18;100.00
28626;BME280;18905;42.668;23.364;2022-10-17T05:13:22;96523.41;;;6.45;100.00
28626;BME280;18905;42.668;23.364;2022-10-17T05:15:47;96528.41;;;6.37;100.00
28626;BME280;18905;42.668;23.364;2022-10-17T05:18:13;96526.81;;;6.36;100.00
28626;BME280;18905;42.668;23.364;2022-10-17T05:20:38;96533.19;;;6.61;100.00
28626;BME280;18905;42.668;23.364;2022-10-17T05:23:04;96528.94;;;6.70;100.00
28626;BME280;18905;42.668;23.364;2022-10-17T05:25:29;96535.75;;;6.88;100.00
28626;BME280;18905;42.668;23.364;2022-10-17T05:27:54;96516.72;;;6.94;100.00
28626;BME280;18905;42.668;23.364;2022-10-17T05:30:20;96542.63;;;7.10;100.00
28626;BME280;18905;42.668;23.364;2022-10-17T05:32:45;96539.72;;;7.22;100.00
28626;BME280;18905;42.668;23.364;2022-10-17T05:35:11;96542.97;;;7.34;100.00
28626;BME280;18905;42.668;23.364;2022-10-17T05:37:36;96544.97;;;7.53;100.00
28626;BME280;18905;42.668;23.364;2022-10-17T05:40:02;96531.00;;;7.61;100.00
28626;BME280;18905;42.668;23.364;2022-10-17T05:42:28;96544.50;;;7.76;100.00
28626;BME280;18905;42.668;23.364;2022-10-17T05:44:53;96552.31;;;7.83;100.00
28626;BME280;18905;42.668;23.364;2022-10-17T05:47:18;96558.44;;;7.63;100.00
28626;BME280;18905;42.668;23.364;2022-10-17T05:49:44;96558.06;;;7.35;100.00
28626;BME280;18905;42.668;23.364;2022-10-17T05:52:09;96555.97;;;7.57;100.00
28626;BME280;18905;42.668;23.364;2022-10-17T05:54:35;96562.81;;;9.44;100.00
28626;BME280;18905;42.668;23.364;2022-10-17T05:57:00;96543.13;;;11.60;100.00
28626;BME280;18905;42.668;23.364;2022-10-17T05:59:26;96569.31;;;13.58;93.07
28626;BME280;18905;42.668;23.364;2022-10-17T06:01:52;96572.25;;;14.51;78.45
28626;BME280;18905;42.668;23.364;2022-10-17T06:04:17;96573.06;;;14.38;75.83
28626;BME280;18905;42.668;23.364;2022-10-17T06:06:43;96575.47;;;14.97;70.52
28626;BME280;18905;42.668;23.364;2022-10-17T06:09:08;96574.88;;;15.44;65.81
28626;BME280;18905;42.668;23.364;2022-10-17T06:11:35;96574.44;;;15.07;67.37
28626;BME280;18905;42.668;23.364;2022-10-17T06:14:00;96569.19;;;15.10;69.58
28626;BME280;18905;42.668;23.364;2022-10-17T06:16:26;96575.78;;;15.18;68.91
28626;BME280;18905;42.668;23.364;2022-10-17T06:18:52;96572.06;;;16.05;61.26
28626;BME280;18905;42.668;23.364;2022-10-17T06:21:20;96577.97;;;15.90;62.79
28626;BME280;18905;42.668;23.364;2022-10-17T06:23:47;96577.66;;;15.92;61.55
28626;BME280;18905;42.668;23.364;2022-10-17T06:26:12;96594.94;;;15.57;63.84
28626;BME280;18905;42.668;23.364;2022-10-17T06:28:38;96598.47;;;13.66;74.96
28626;BME280;18905;42.668;23.364;2022-10-17T06:31:08;96598.44;;;13.07;80.48
28626;BME280;18905;42.668;23.364;2022-10-17T06:33:35;96597.94;;;13.64;79.29
28626;BME280;18905;42.668;23.364;2022-10-17T06:36:01;96595.59;;;12.99;80.86
28626;BME280;18905;42.668;23.364;2022-10-17T06:38:27;96602.06;;;14.29;75.43
28626;BME280;18905;42.668;23.364;2022-10-17T06:40:53;96602.50;;;13.69;75.57
28626;BME280;18905;42.668;23.364;2022-10-17T06:43:19;96609.09;;;14.57;70.85
28626;BME280;18905;42.668;23.364;2022-10-17T06:45:45;96605.19;;;13.55;76.78
28626;BME280;18905;42.668;23.364;2022-10-17T06:48:12;96607.31;;;13.58;75.67
28626;BME280;18905;42.668;23.364;2022-10-17T06:50:37;96609.44;;;14.02;76.30
28626;BME280;18905;42.668;23.364;2022-10-17T06:53:03;96602.66;;;14.53;71.81
28626;BME280;18905;42.668;23.364;2022-10-17T06:55:30;96601.19;;;14.34;72.17
28626;BME280;18905;42.668;23.364;2022-10-17T06:57:56;96617.16;;;14.84;71.30
28626;BME280;18905;42.668;23.364;2022-10-17T07:00:21;96604.25;;;16.51;62.82
28626;BME280;18905;42.668;23.364;2022-10-17T07:02:48;96610.78;;;17.77;57.74
28626;BME280;18905;42.668;23.364;2022-10-17T07:05:13;96599.63;;;17.91;53.95
28626;BME280;18905;42.668;23.364;2022-10-17T07:07:39;96591.22;;;18.62;51.81
28626;BME280;18905;42.668;23.364;2022-10-17T07:10:05;96592.09;;;18.75;50.96
28626;BME280;18905;42.668;23.364;2022-10-17T07:12:33;96607.63;;;18.91;51.26
28626;BME280;18905;42.668;23.364;2022-10-17T07:14:59;96597.22;;;19.70;48.07
28626;BME280;18905;42.668;23.364;2022-10-17T07:17:24;96607.44;;;18.67;50.33
28626;BME280;18905;42.668;23.364;2022-10-17T07:19:50;96609.94;;;19.42;49.30
28626;BME280;18905;42.668;23.364;2022-10-17T07:22:15;96606.84;;;18.41;50.24
28626;BME280;18905;42.668;23.364;2022-10-17T07:24:40;96601.28;;;18.21;51.09
28626;BME280;18905;42.668;23.364;2022-10-17T07:27:06;96597.41;;;17.84;52.13
28626;BME280;18905;42.668;23.364;2022-10-17T07:29:32;96607.00;;;17.44;52.56
28626;BME280;18905;42.668;23.364;2022-10-17T07:31:57;96603.97;;;16.78;54.64
28626;BME280;18905;42.668;23.364;2022-10-17T07:34:22;96590.81;;;16.54;56.13
28626;BME280;18905;42.668;23.364;2022-10-17T07:36:52;96580.41;;;16.09;59.22
28626;BME280;18905;42.668;23.364;2022-10-17T07:39:17;96618.09;;;16.07;58.01
28626;BME280;18905;42.668;23.364;2022-10-17T07:41:43;96603.47;;;16.50;58.17
28626;BME280;18905;42.668;23.364;2022-10-17T07:44:08;96595.28;;;16.59;56.97
28626;BME280;18905;42.668;23.364;2022-10-17T07:46:34;96614.41;;;16.84;57.22
28626;BME280;18905;42.668;23.364;2022-10-17T07:48:59;96610.25;;;17.92;53.37
28626;BME280;18905;42.668;23.364;2022-10-17T07:51:25;96598.50;;;17.46;53.46
28626;BME280;18905;42.668;23.364;2022-10-17T07:53:51;96610.53;;;17.45;53.43
28626;BME280;18905;42.668;23.364;2022-10-17T07:56:16;96605.41;;;17.43;55.24
28626;BME280;18905;42.668;23.364;2022-10-17T07:58:41;96612.66;;;17.22;55.48
28626;BME280;18905;42.668;23.364;2022-10-17T08:01:08;96621.31;;;17.16;54.89
28626;BME280;18905;42.668;23.364;2022-10-17T08:03:40;96617.78;;;17.15;55.76
28626;BME280;18905;42.668;23.364;2022-10-17T08:06:05;96589.94;;;17.64;53.78
28626;BME280;18905;42.668;23.364;2022-10-17T08:08:31;96587.44;;;18.17;51.88
28626;BME280;18905;42.668;23.364;2022-10-17T08:11:02;96603.03;;;18.54;51.17
28626;BME280;18905;42.668;23.364;2022-10-17T08:13:28;96598.63;;;18.41;51.38
28626;BME280;18905;42.668;23.364;2022-10-17T08:15:58;96576.91;;;19.27;50.01
28626;BME280;18905;42.668;23.364;2022-10-17T08:18:23;96592.09;;;18.75;50.55
28626;BME280;18905;42.668;23.364;2022-10-17T08:20:49;96591.75;;;19.38;49.02
28626;BME280;18905;42.668;23.364;2022-10-17T08:23:14;96567.75;;;18.03;50.25
28626;BME280;18905;42.668;23.364;2022-10-17T08:25:39;96588.22;;;17.43;51.67
28626;BME280;18905;42.668;23.364;2022-10-17T08:28:05;96591.53;;;18.40;51.09
28626;BME280;18905;42.668;23.364;2022-10-17T08:30:31;96599.03;;;18.72;49.87
28626;BME280;18905;42.668;23.364;2022-10-17T08:32:56;96595.97;;;18.53;49.72
28626;BME280;18905;42.668;23.364;2022-10-17T08:35:22;96589.03;;;17.89;51.15
28626;BME280;18905;42.668;23.364;2022-10-17T08:37:48;96594.84;;;16.99;52.81
28626;BME280;18905;42.668;23.364;2022-10-17T08:40:20;96577.56;;;17.58;50.40
28626;BME280;18905;42.668;23.364;2022-10-17T08:45:35;96592.94;;;17.80;49.90
28626;BME280;18905;42.668;23.364;2022-10-17T08:48:10;96597.94;;;18.15;48.68
28626;BME280;18905;42.668;23.364;2022-10-17T08:50:44;96597.09;;;17.86;50.91
28626;BME280;18905;42.668;23.364;2022-10-17T08:53:41;96596.84;;;18.08;48.95
28626;BME280;18905;42.668;23.364;2022-10-17T08:56:19;96605.06;;;18.86;47.67
28626;BME280;18905;42.668;23.364;2022-10-17T08:58:45;96600.91;;;19.74;46.86
28626;BME280;18905;42.668;23.364;2022-10-17T09:09:41;96600.38;;;19.07;46.18
28626;BME280;18905;42.668;23.364;2022-10-17T09:18:30;96596.25;;;19.01;44.62
28626;BME280;18905;42.668;23.364;2022-10-17T09:24:00;96575.81;;;19.40;44.56
28626;BME280;18905;42.668;23.364;2022-10-17T09:26:28;96595.69;;;19.49;44.73
28626;BME280;18905;42.668;23.364;2022-10-17T09:28:56;96594.28;;;19.75;44.65
28626;BME280;18905;42.668;23.364;2022-10-17T09:31:25;96594.97;;;19.84;44.57
28626;BME280;18905;42.668;23.364;2022-10-17T09:33:55;96596.41;;;19.70;45.11
28626;BME280;18905;42.668;23.364;2022-10-17T09:36:37;96598.69;;;20.12;42.31
28626;BME280;18905;42.668;23.364;2022-10-17T09:39:19;96590.75;;;19.22;43.78
28626;BME280;18905;42.668;23.364;2022-10-17T09:41:49;96591.38;;;19.60;43.04
28626;BME280;18905;42.668;23.364;2022-10-17T09:44:17;96582.50;;;19.10;43.98
28626;BME280;18905;42.668;23.364;2022-10-17T09:49:28;96582.13;;;20.21;42.08
28626;BME280;18905;42.668;23.364;2022-10-17T09:51:56;96575.81;;;20.56;40.21
28626;BME280;18905;42.668;23.364;2022-10-17T09:57:08;96575.31;;;20.91;40.26
28626;BME280;18905;42.668;23.364;2022-10-17T09:59:43;96572.88;;;21.29;39.33
28626;BME280;18905;42.668;23.364;2022-10-17T10:02:16;96568.41;;;21.52;39.12
28626;BME280;18905;42.668;23.364;2022-10-17T10:04:58;96569.53;;;21.08;35.43
28626;BME280;18905;42.668;23.364;2022-10-17T10:07:27;96565.88;;;21.16;36.85
28626;BME280;18905;42.668;23.364;2022-10-17T10:09:53;96564.19;;;21.27;36.31
28626;BME280;18905;42.668;23.364;2022-10-17T10:14:44;96557.06;;;21.53;35.22
28626;BME280;18905;42.668;23.364;2022-10-17T10:17:40;96561.97;;;21.87;33.83
28626;BME280;18905;42.668;23.364;2022-10-17T10:20:27;96554.59;;;21.91;33.82
28626;BME280;18905;42.668;23.364;2022-10-17T10:23:17;96556.13;;;21.34;34.61
28626;BME280;18905;42.668;23.364;2022-10-17T10:25:54;96541.28;;;21.78;33.48
28626;BME280;18905;42.668;23.364;2022-10-17T10:28:22;96558.72;;;21.27;34.45
28626;BME280;18905;42.668;23.364;2022-10-17T10:30:50;96540.44;;;20.79;35.65
28626;BME280;18905;42.668;23.364;2022-10-17T10:33:22;96534.69;;;20.96;35.72
28626;BME280;18905;42.668;23.364;2022-10-17T10:35:55;96548.28;;;21.32;35.31
28626;BME280;18905;42.668;23.364;2022-10-17T10:38:21;96542.81;;;21.63;34.56
28626;BME280;18905;42.668;23.364;2022-10-17T10:40:49;96532.66;;;21.21;34.77
28626;BME280;18905;42.668;23.364;2022-10-17T10:43:44;96538.38;;;21.59;34.52
28626;BME280;18905;42.668;23.364;2022-10-17T10:46:19;96537.38;;;21.94;34.58
28626;BME280;18905;42.668;23.364;2022-10-17T10:48:59;96539.25;;;21.47;35.40
28626;BME280;18905;42.668;23.364;2022-10-17T10:51:32;96530.28;;;21.78;33.62
28626;BME280;18905;42.668;23.364;2022-10-17T10:56:39;96525.00;;;22.35;32.41
28626;BME280;18905;42.668;23.364;2022-10-17T11:01:56;96510.25;;;21.77;32.56
28626;BME280;18905;42.668;23.364;2022-10-17T11:09:50;96510.75;;;21.83;32.43
28626;BME280;18905;42.668;23.364;2022-10-17T11:12:22;96518.47;;;21.93;32.95
28626;BME280;18905;42.668;23.364;2022-10-17T11:15:04;96499.59;;;21.76;33.07
28626;BME280;18905;42.668;23.364;2022-10-17T11:17:40;96497.16;;;21.59;33.34
28626;BME280;18905;42.668;23.364;2022-10-17T11:22:42;96498.16;;;22.13;32.19
28626;BME280;18905;42.668;23.364;2022-10-17T11:25:33;96477.03;;;22.17;32.12
28626;BME280;18905;42.668;23.364;2022-10-17T11:28:00;96496.34;;;22.20;33.16
28626;BME280;18905;42.668;23.364;2022-10-17T11:30:29;96500.59;;;22.33;32.23
28626;BME280;18905;42.668;23.364;2022-10-17T11:32:59;96496.94;;;22.45;32.97
28626;BME280;18905;42.668;23.364;2022-10-17T11:35:35;96487.56;;;22.65;32.94
28626;BME280;18905;42.668;23.364;2022-10-17T11:40:33;96485.97;;;22.14;32.33
28626;BME280;18905;42.668;23.364;2022-10-17T11:43:02;96488.34;;;21.38;32.86
28626;BME280;18905;42.668;23.364;2022-10-17T11:45:34;96478.72;;;21.75;32.51
28626;BME280;18905;42.668;23.364;2022-10-17T11:48:05;96484.69;;;20.91;33.42
28626;BME280;18905;42.668;23.364;2022-10-17T11:50:38;96472.75;;;21.42;32.99
28626;BME280;18905;42.668;23.364;2022-10-17T11:53:09;96482.13;;;21.25;33.06
28626;BME280;18905;42.668;23.364;2022-10-17T11:55:35;96460.44;;;21.36;33.05
28626;BME280;18905;42.668;23.364;2022-10-17T11:58:24;96468.34;;;21.53;33.03
28626;BME280;18905;42.668;23.364;2022-10-17T12:02:01;96467.41;;;21.18;33.39
28626;BME280;18905;42.668;23.364;2022-10-17T12:07:44;96463.28;;;21.39;33.21
28626;BME280;18905;42.668;23.364;2022-10-17T12:10:32;96469.53;;;21.09;33.18
28626;BME280;18905;42.668;23.364;2022-10-17T12:15:51;96451.38;;;20.25;33.85
28626;BME280;18905;42.668;23.364;2022-10-17T12:18:17;96459.63;;;20.01;34.34
28626;BME280;18905;42.668;23.364;2022-10-17T12:20:57;96458.47;;;20.65;33.43
28626;BME280;18905;42.668;23.364;2022-10-17T12:23:30;96462.28;;;21.32;33.90
28626;BME280;18905;42.668;23.364;2022-10-17T12:26:00;96455.16;;;21.00;33.64
28626;BME280;18905;42.668;23.364;2022-10-17T12:28:45;96467.16;;;20.67;34.00
28626;BME280;18905;42.668;23.364;2022-10-17T12:33:49;96449.78;;;20.00;33.84
28626;BME280;18905;42.668;23.364;2022-10-17T12:38:44;96447.91;;;20.79;32.65
28626;BME280;18905;42.668;23.364;2022-10-17T12:41:10;96443.97;;;20.53;33.66
28626;BME280;18905;42.668;23.364;2022-10-17T12:49:42;96446.78;;;21.55;32.63
28626;BME280;18905;42.668;23.364;2022-10-17T12:54:47;96452.56;;;20.91;32.52
28626;BME280;18905;42.668;23.364;2022-10-17T13:00:13;96445.53;;;20.38;33.08
28626;BME280;18905;42.668;23.364;2022-10-17T13:02:40;96449.19;;;20.70;32.61
28626;BME280;18905;42.668;23.364;2022-10-17T13:05:13;96441.63;;;20.67;32.53
28626;BME280;18905;42.668;23.364;2022-10-17T13:07:40;96428.41;;;20.57;32.57
28626;BME280;18905;42.668;23.364;2022-10-17T13:10:26;96447.66;;;20.84;32.43
28626;BME280;18905;42.668;23.364;2022-10-17T13:13:01;96446.84;;;21.12;31.59
28626;BME280;18905;42.668;23.364;2022-10-17T13:15:29;96445.56;;;20.94;32.32
28626;BME280;18905;42.668;23.364;2022-10-17T13:17:59;96445.31;;;20.99;32.09
28626;BME280;18905;42.668;23.364;2022-10-17T13:20:26;96432.13;;;20.49;31.71
28626;BME280;18905;42.668;23.364;2022-10-17T13:22:54;96440.34;;;20.76;32.31
28626;BME280;18905;42.668;23.364;2022-10-17T13:25:20;96447.50;;;20.65;30.56
28626;BME280;18905;42.668;23.364;2022-10-17T13:27:47;96447.59;;;20.69;30.74
28626;BME280;18905;42.668;23.364;2022-10-17T13:30:24;96438.47;;;20.53;31.09
28626;BME280;18905;42.668;23.364;2022-10-17T13:32:50;96420.41;;;20.64;31.30
28626;BME280;18905;42.668;23.364;2022-10-17T13:35:24;96441.84;;;20.74;30.73
28626;BME280;18905;42.668;23.364;2022-10-17T13:37:51;96432.31;;;20.28;30.45
28626;BME280;18905;42.668;23.364;2022-10-17T13:40:41;96442.28;;;20.48;30.48
28626;BME280;18905;42.668;23.364;2022-10-17T13:43:15;96431.22;;;20.45;29.63
28626;BME280;18905;42.668;23.364;2022-10-17T13:45:46;96438.06;;;20.51;30.17
28626;BME280;18905;42.668;23.364;2022-10-17T13:48:22;96443.38;;;20.59;30.59
28626;BME280;18905;42.668;23.364;2022-10-17T13:50:49;96440.88;;;20.15;34.94
28626;BME280;18905;42.668;23.364;2022-10-17T13:58:31;96437.56;;;19.73;36.82
28626;BME280;18905;42.668;23.364;2022-10-17T14:00:56;96435.63;;;19.62;37.17
28626;BME280;18905;42.668;23.364;2022-10-17T14:03:22;96432.69;;;19.55;38.38
28626;BME280;18905;42.668;23.364;2022-10-17T14:08:30;96437.75;;;19.20;39.70
28626;BME280;18905;42.668;23.364;2022-10-17T14:10:56;96433.41;;;19.19;39.54
28626;BME280;18905;42.668;23.364;2022-10-17T14:13:24;96450.59;;;18.96;40.21
28626;BME280;18905;42.668;23.364;2022-10-17T14:15:52;96444.88;;;18.89;40.65
28626;BME280;18905;42.668;23.364;2022-10-17T14:18:22;96449.41;;;18.85;41.17
28626;BME280;18905;42.668;23.364;2022-10-17T14:20:49;96460.88;;;19.11;40.95
28626;BME280;18905;42.668;23.364;2022-10-17T14:26:04;96457.19;;;18.95;41.76
28626;BME280;18905;42.668;23.364;2022-10-17T14:28:30;96447.97;;;18.99;41.23
28626;BME280;18905;42.668;23.364;2022-10-17T14:33:46;96455.59;;;18.61;41.81
28626;BME280;18905;42.668;23.364;2022-10-17T14:36:13;96438.59;;;18.35;43.36
28626;BME280;18905;42.668;23.364;2022-10-17T14:38:44;96458.75;;;18.22;43.76
28626;BME280;18905;42.668;23.364;2022-10-17T14:41:19;96451.91;;;18.16;44.00
28626;BME280;18905;42.668;23.364;2022-10-17T14:43:51;96444.84;;;18.15;44.41
28626;BME280;18905;42.668;23.364;2022-10-17T14:46:16;96447.22;;;17.96;44.99
28626;BME280;18905;42.668;23.364;2022-10-17T14:48:42;96447.84;;;17.73;45.20